createdAt,value
2022-12-26T00:00:33.874Z,13.15
2022-12-26T00:01:33.735Z,13.13
2022-12-26T00:02:33.838Z,13.13
2022-12-26T00:03:33.863Z,13.15
2022-12-26T00:04:49.437Z,13.16
2022-12-26T00:05:34.683Z,13.13
2022-12-26T00:06:33.678Z,13.12
2022-12-26T00:07:33.673Z,13.13
2022-12-26T00:08:33.645Z,13.08
2022-12-26T00:09:33.628Z,13.11
2022-12-26T00:10:33.617Z,13.11
2022-12-26T00:11:33.615Z,13.12
2022-12-26T00:12:33.614Z,13.16
2022-12-26T00:13:38.613Z,13.22
2022-12-26T00:14:33.567Z,13.18
2022-12-26T00:15:33.551Z,13.15
2022-12-26T00:16:33.623Z,13.09
2022-12-26T00:17:33.542Z,13.15
2022-12-26T00:18:33.519Z,13.13
2022-12-26T00:19:33.519Z,13.15
2022-12-26T00:20:33.485Z,13.20
2022-12-26T00:21:33.472Z,13.19
2022-12-26T00:22:33.482Z,13.18
2022-12-26T00:23:33.453Z,13.20
2022-12-26T00:24:33.441Z,13.16
2022-12-26T00:25:33.418Z,13.18
2022-12-26T00:26:33.412Z,13.19
2022-12-26T00:27:33.421Z,13.23
2022-12-26T00:28:33.419Z,13.28
2022-12-26T00:29:33.370Z,13.28
2022-12-26T00:30:33.356Z,13.31
2022-12-26T00:31:33.416Z,13.23
2022-12-26T00:32:33.354Z,13.25
2022-12-26T00:33:33.318Z,13.27
2022-12-26T00:34:33.305Z,13.31
2022-12-26T00:35:33.343Z,13.30
2022-12-26T00:36:33.328Z,13.37
2022-12-26T00:37:33.285Z,13.41
2022-12-26T00:38:33.251Z,13.39
2022-12-26T00:39:33.235Z,13.33
2022-12-26T00:40:33.235Z,13.41
2022-12-26T00:41:33.213Z,13.39
2022-12-26T00:42:33.237Z,13.38
2022-12-26T00:43:33.184Z,13.33
2022-12-26T00:44:33.176Z,13.31
2022-12-26T00:45:33.162Z,13.33
2022-12-26T00:46:33.201Z,13.31
2022-12-26T00:47:33.134Z,13.28
2022-12-26T00:48:33.134Z,13.33
2022-12-26T00:50:11.405Z,13.31
2022-12-26T00:50:35.085Z,13.31
2022-12-26T00:51:33.103Z,13.33
2022-12-26T00:52:33.076Z,13.37
2022-12-26T00:53:33.080Z,13.38
2022-12-26T00:54:33.044Z,13.41
2022-12-26T00:55:33.035Z,13.44
2022-12-26T00:56:33.019Z,13.47
2022-12-26T00:57:33.003Z,13.39
2022-12-26T00:58:33.002Z,13.41
2022-12-26T00:59:32.985Z,13.38
2022-12-26T01:00:33.017Z,13.35
2022-12-26T01:01:33.166Z,13.35
2022-12-26T01:02:32.996Z,13.35
2022-12-26T01:03:32.948Z,13.33
2022-12-26T01:04:32.915Z,13.38
2022-12-26T01:05:32.902Z,13.38
2022-12-26T01:06:32.880Z,13.30
2022-12-26T01:07:32.894Z,13.33
2022-12-26T01:08:32.879Z,13.31
2022-12-26T01:09:32.850Z,13.33
2022-12-26T01:10:32.827Z,13.35
2022-12-26T01:11:32.825Z,13.31
2022-12-26T01:12:32.814Z,13.31
2022-12-26T01:13:32.817Z,13.28
2022-12-26T01:14:32.782Z,13.31
2022-12-26T01:15:32.781Z,13.31
2022-12-26T01:16:32.899Z,13.30
2022-12-26T01:17:32.743Z,13.28
2022-12-26T01:18:32.740Z,13.28
2022-12-26T01:19:32.724Z,13.25
2022-12-26T01:20:32.702Z,13.35
2022-12-26T01:21:32.689Z,13.35
2022-12-26T01:22:32.681Z,13.33
2022-12-26T01:23:32.697Z,13.33
2022-12-26T01:24:32.654Z,13.30
2022-12-26T01:25:32.642Z,13.28
2022-12-26T01:26:32.648Z,13.28
2022-12-26T01:27:32.647Z,13.23
2022-12-26T01:28:32.633Z,13.25
2022-12-26T01:29:32.594Z,13.25
2022-12-26T01:30:32.574Z,13.25
2022-12-26T01:31:32.620Z,13.22
2022-12-26T01:32:32.553Z,13.31
2022-12-26T01:33:32.575Z,13.35
2022-12-26T01:34:32.534Z,13.33
2022-12-26T01:35:32.511Z,13.37
2022-12-26T01:36:32.496Z,13.33
2022-12-26T01:37:32.487Z,13.28
2022-12-26T01:38:32.490Z,13.28
2022-12-26T01:39:32.477Z,13.33
2022-12-26T01:40:32.445Z,13.35
2022-12-26T01:41:32.433Z,13.39
2022-12-26T01:42:32.420Z,13.41
2022-12-26T01:43:32.437Z,13.39
2022-12-26T01:44:32.390Z,13.37
2022-12-26T01:45:32.544Z,13.39
2022-12-26T01:46:32.391Z,13.37
2022-12-26T01:47:32.353Z,13.44
2022-12-26T01:48:32.344Z,13.38
2022-12-26T01:49:32.344Z,13.39
2022-12-26T01:50:32.334Z,13.39
2022-12-26T01:51:32.303Z,13.46
2022-12-26T01:52:32.312Z,13.42
2022-12-26T01:53:32.275Z,13.41
2022-12-26T01:54:41.011Z,13.39
2022-12-26T01:55:32.274Z,13.46
2022-12-26T01:56:32.236Z,13.46
2022-12-26T01:57:32.222Z,13.42
2022-12-26T01:58:32.207Z,13.39
2022-12-26T01:59:32.217Z,13.46
2022-12-26T02:00:32.188Z,13.42
2022-12-26T02:01:32.410Z,13.44
2022-12-26T02:02:32.267Z,13.49
2022-12-26T02:03:32.144Z,13.47
2022-12-26T02:04:32.145Z,13.49
2022-12-26T02:05:32.121Z,13.52
2022-12-26T02:06:32.107Z,13.50
2022-12-26T02:07:32.094Z,13.49
2022-12-26T02:08:32.090Z,13.50
2022-12-26T02:09:32.102Z,13.56
2022-12-26T02:10:32.053Z,13.57
2022-12-26T02:11:32.057Z,13.54
2022-12-26T02:12:36.540Z,13.49
2022-12-26T02:13:32.014Z,13.49
2022-12-26T02:14:32.052Z,13.50
2022-12-26T02:15:31.989Z,13.54
2022-12-26T02:16:32.038Z,13.52
2022-12-26T02:17:31.984Z,13.59
2022-12-26T02:18:31.958Z,13.59
2022-12-26T02:19:31.950Z,13.56
2022-12-26T02:20:31.943Z,13.52
2022-12-26T02:21:31.906Z,13.56
2022-12-26T02:22:31.895Z,13.54
2022-12-26T02:23:31.905Z,13.52
2022-12-26T02:24:31.889Z,13.52
2022-12-26T02:25:31.860Z,13.59
2022-12-26T02:26:31.840Z,13.53
2022-12-26T02:27:31.865Z,13.50
2022-12-26T02:28:31.817Z,13.50
2022-12-26T02:29:31.819Z,13.52
2022-12-26T02:30:31.789Z,13.52
2022-12-26T02:31:31.895Z,13.53
2022-12-26T02:32:31.768Z,13.49
2022-12-26T02:33:31.751Z,13.56
2022-12-26T02:34:31.784Z,13.52
2022-12-26T02:35:31.731Z,13.50
2022-12-26T02:36:31.712Z,13.46
2022-12-26T02:37:31.702Z,13.46
2022-12-26T02:38:31.685Z,13.42
2022-12-26T02:39:45.625Z,13.44
2022-12-26T02:40:32.660Z,13.46
2022-12-26T02:41:31.647Z,13.44
2022-12-26T02:42:31.664Z,13.56
2022-12-26T02:43:31.642Z,13.59
2022-12-26T02:44:31.624Z,13.57
2022-12-26T02:45:31.767Z,13.54
2022-12-26T02:46:31.641Z,13.57
2022-12-26T02:47:31.580Z,13.59
2022-12-26T02:48:31.566Z,13.53
2022-12-26T02:49:31.554Z,13.56
2022-12-26T02:50:31.537Z,13.54
2022-12-26T02:51:31.521Z,13.57
2022-12-26T02:52:31.508Z,13.56
2022-12-26T02:53:31.491Z,13.59
2022-12-26T02:54:31.476Z,13.60
2022-12-26T02:55:31.474Z,13.57
2022-12-26T02:56:31.452Z,13.57
2022-12-26T02:57:31.443Z,13.59
2022-12-26T02:58:31.444Z,13.60
2022-12-26T02:59:54.121Z,13.56
2022-12-26T03:00:32.413Z,13.56
2022-12-26T03:01:31.534Z,13.57
2022-12-26T03:02:31.581Z,13.60
2022-12-26T03:03:31.382Z,13.56
2022-12-26T03:04:31.350Z,13.57
2022-12-26T03:05:31.355Z,13.59
2022-12-26T03:06:31.324Z,13.60
2022-12-26T03:07:31.316Z,13.59
2022-12-26T03:08:31.297Z,13.56
2022-12-26T03:09:31.300Z,13.56
2022-12-26T03:10:31.282Z,13.52
2022-12-26T03:11:31.261Z,13.50
2022-12-26T03:12:31.244Z,13.47
2022-12-26T03:13:31.231Z,13.49
2022-12-26T03:14:31.217Z,13.52
2022-12-26T03:15:31.243Z,13.63
2022-12-26T03:16:31.265Z,13.71
2022-12-26T03:17:31.179Z,13.77
2022-12-26T03:18:59.201Z,13.78
2022-12-26T03:19:31.152Z,13.75
2022-12-26T03:20:31.171Z,13.74
2022-12-26T03:21:31.126Z,13.75
2022-12-26T03:22:31.118Z,13.78
2022-12-26T03:23:31.106Z,13.74
2022-12-26T03:24:31.089Z,13.77
2022-12-26T03:25:31.097Z,13.77
2022-12-26T03:26:31.081Z,13.78
2022-12-26T03:27:31.057Z,13.78
2022-12-26T03:28:31.035Z,13.78
2022-12-26T03:29:31.033Z,13.83
2022-12-26T03:30:31.080Z,13.79
2022-12-26T03:31:31.021Z,13.72
2022-12-26T03:32:30.984Z,13.72
2022-12-26T03:33:30.972Z,13.68
2022-12-26T03:34:30.955Z,13.68
2022-12-26T03:35:30.957Z,13.63
2022-12-26T03:36:30.928Z,13.65
2022-12-26T03:37:48.848Z,13.68
2022-12-26T03:38:30.907Z,13.70
2022-12-26T03:39:30.889Z,13.68
2022-12-26T03:40:30.896Z,13.72
2022-12-26T03:41:30.871Z,13.68
2022-12-26T03:42:30.855Z,13.68
2022-12-26T03:43:30.849Z,13.67
2022-12-26T03:44:30.831Z,13.62
2022-12-26T03:45:30.826Z,13.60
2022-12-26T03:46:30.860Z,13.62
2022-12-26T03:47:30.811Z,13.57
2022-12-26T03:48:30.784Z,13.57
2022-12-26T03:49:30.764Z,13.60
2022-12-26T03:50:30.761Z,13.57
2022-12-26T03:51:30.732Z,13.57
2022-12-26T03:52:30.723Z,13.56
2022-12-26T03:53:30.711Z,13.60
2022-12-26T03:54:30.695Z,13.65
2022-12-26T03:55:30.709Z,13.62
2022-12-26T03:56:32.736Z,13.67
2022-12-26T03:57:30.668Z,13.63
2022-12-26T03:58:30.642Z,13.60
2022-12-26T03:59:30.757Z,13.56
2022-12-26T04:00:30.647Z,13.53
2022-12-26T04:01:30.711Z,13.50
2022-12-26T04:02:30.842Z,13.47
2022-12-26T04:03:30.701Z,13.47
2022-12-26T04:04:30.571Z,13.47
2022-12-26T04:05:30.556Z,13.38
2022-12-26T04:06:30.558Z,13.35
2022-12-26T04:07:30.531Z,13.38
2022-12-26T04:08:30.515Z,13.44
2022-12-26T04:09:30.501Z,13.44
2022-12-26T04:10:30.489Z,13.42
2022-12-26T04:11:30.489Z,13.49
2022-12-26T04:12:30.455Z,13.41
2022-12-26T04:13:30.446Z,13.50
2022-12-26T04:14:30.436Z,13.52
2022-12-26T04:15:30.454Z,13.44
2022-12-26T04:16:30.424Z,13.44
2022-12-26T04:17:30.394Z,13.42
2022-12-26T04:18:30.379Z,13.42
2022-12-26T04:19:30.396Z,13.41
2022-12-26T04:20:30.357Z,13.46
2022-12-26T04:21:30.370Z,13.42
2022-12-26T04:22:30.326Z,13.46
2022-12-26T04:23:30.332Z,13.47
2022-12-26T04:24:30.305Z,13.47
2022-12-26T04:25:49.781Z,13.42
2022-12-26T04:26:30.299Z,13.37
2022-12-26T04:27:30.272Z,13.35
2022-12-26T04:28:30.282Z,13.35
2022-12-26T04:29:30.245Z,13.35
2022-12-26T04:30:30.226Z,13.33
2022-12-26T04:31:30.352Z,13.35
2022-12-26T04:32:30.197Z,13.35
2022-12-26T04:33:30.183Z,13.35
2022-12-26T04:34:30.170Z,13.30
2022-12-26T04:35:30.187Z,13.28
2022-12-26T04:36:30.180Z,13.23
2022-12-26T04:37:30.162Z,13.28
2022-12-26T04:38:30.178Z,13.27
2022-12-26T04:39:30.158Z,13.27
2022-12-26T04:40:30.177Z,13.18
2022-12-26T04:41:30.182Z,13.23
2022-12-26T04:42:30.067Z,13.22
2022-12-26T04:43:49.152Z,13.25
2022-12-26T04:44:31.065Z,13.28
2022-12-26T04:45:30.065Z,13.25
2022-12-26T04:46:30.138Z,13.25
2022-12-26T04:47:30.006Z,13.23
2022-12-26T04:48:30.012Z,13.30
2022-12-26T04:49:29.979Z,13.31
2022-12-26T04:50:29.962Z,13.30
2022-12-26T04:51:29.981Z,13.28
2022-12-26T04:52:29.947Z,13.27
2022-12-26T04:53:29.929Z,13.23
2022-12-26T04:54:29.931Z,13.22
2022-12-26T04:55:29.902Z,13.22
2022-12-26T04:56:29.899Z,13.22
2022-12-26T04:57:29.873Z,13.30
2022-12-26T04:58:29.864Z,13.35
2022-12-26T04:59:29.849Z,13.33
2022-12-26T05:00:29.839Z,13.31
2022-12-26T05:01:29.953Z,13.31
2022-12-26T05:02:29.914Z,13.30
2022-12-26T05:03:29.900Z,13.31
2022-12-26T05:04:29.778Z,13.30
2022-12-26T05:05:29.774Z,13.28
2022-12-26T05:06:29.753Z,13.28
2022-12-26T05:07:29.783Z,13.23
2022-12-26T05:08:29.735Z,13.25
2022-12-26T05:09:29.724Z,13.23
2022-12-26T05:10:29.726Z,13.20
2022-12-26T05:11:29.696Z,13.20
2022-12-26T05:12:29.695Z,13.19
2022-12-26T05:13:29.663Z,13.18
2022-12-26T05:14:29.657Z,13.20
2022-12-26T05:15:29.638Z,13.20
2022-12-26T05:16:29.723Z,13.18
2022-12-26T05:17:29.633Z,13.20
2022-12-26T05:18:29.597Z,13.16
2022-12-26T05:19:29.582Z,13.16
2022-12-26T05:20:29.574Z,13.15
2022-12-26T05:21:29.561Z,13.13
2022-12-26T05:22:29.570Z,13.09
2022-12-26T05:23:29.556Z,13.13
2022-12-26T05:24:29.531Z,13.12
2022-12-26T05:25:29.522Z,13.13
2022-12-26T05:26:29.498Z,13.13
2022-12-26T05:27:29.496Z,13.19
2022-12-26T05:28:29.468Z,13.19
2022-12-26T05:29:29.467Z,13.19
2022-12-26T05:30:29.445Z,13.19
2022-12-26T05:31:35.019Z,13.15
2022-12-26T05:32:29.439Z,13.18
2022-12-26T05:33:29.403Z,13.18
2022-12-26T05:34:29.396Z,13.20
2022-12-26T05:35:29.374Z,13.18
2022-12-26T05:36:29.367Z,13.15
2022-12-26T05:37:29.372Z,13.12
2022-12-26T05:38:29.344Z,13.11
2022-12-26T05:39:29.343Z,13.12
2022-12-26T05:40:29.329Z,13.12
2022-12-26T05:41:29.298Z,13.16
2022-12-26T05:42:29.302Z,13.15
2022-12-26T05:43:29.278Z,13.19
2022-12-26T05:44:29.262Z,13.15
2022-12-26T05:45:29.263Z,13.13
2022-12-26T05:46:29.328Z,13.11
2022-12-26T05:47:29.241Z,13.13
2022-12-26T05:48:29.229Z,13.13
2022-12-26T05:49:29.200Z,13.13
2022-12-26T05:50:29.219Z,13.18
2022-12-26T05:51:29.173Z,13.23
2022-12-26T05:52:29.221Z,13.20
2022-12-26T05:53:29.161Z,13.28
2022-12-26T05:54:29.141Z,13.31
2022-12-26T05:55:29.139Z,13.28
2022-12-26T05:56:29.133Z,13.25
2022-12-26T05:57:29.103Z,13.20
2022-12-26T05:58:29.078Z,13.23
2022-12-26T05:59:29.061Z,13.25
2022-12-26T06:00:29.053Z,13.19
2022-12-26T06:01:29.082Z,13.27
2022-12-26T06:02:29.149Z,13.35
2022-12-26T06:03:29.063Z,13.33
2022-12-26T06:04:29.000Z,13.31
2022-12-26T06:05:28.989Z,13.27
2022-12-26T06:06:28.997Z,13.28
2022-12-26T06:07:28.970Z,13.33
2022-12-26T06:08:28.950Z,13.33
2022-12-26T06:09:28.929Z,13.35
2022-12-26T06:10:28.921Z,13.35
2022-12-26T06:11:28.963Z,13.42
2022-12-26T06:12:28.931Z,13.41
2022-12-26T06:13:28.881Z,13.46
2022-12-26T06:14:28.875Z,13.39
2022-12-26T06:15:28.852Z,13.46
2022-12-26T06:16:28.986Z,13.42
2022-12-26T06:17:28.842Z,13.44
2022-12-26T06:18:28.819Z,13.39
2022-12-26T06:19:28.813Z,13.37
2022-12-26T06:20:28.799Z,13.33
2022-12-26T06:21:28.780Z,13.37
2022-12-26T06:22:28.797Z,13.33
2022-12-26T06:23:28.750Z,13.35
2022-12-26T06:24:28.740Z,13.37
2022-12-26T06:25:28.728Z,13.30
2022-12-26T06:26:28.713Z,13.27
2022-12-26T06:27:28.733Z,13.31
2022-12-26T06:28:28.712Z,13.30
2022-12-26T06:29:28.670Z,13.28
2022-12-26T06:30:28.666Z,13.23
2022-12-26T06:31:28.685Z,13.23
2022-12-26T06:32:28.638Z,13.20
2022-12-26T06:33:28.633Z,13.23
2022-12-26T06:34:28.608Z,13.22
2022-12-26T06:35:28.594Z,13.20
2022-12-26T06:36:28.587Z,13.22
2022-12-26T06:37:28.568Z,13.23
2022-12-26T06:38:28.573Z,13.19
2022-12-26T06:39:28.546Z,13.20
2022-12-26T06:40:28.535Z,13.18
2022-12-26T06:41:28.515Z,13.19
2022-12-26T06:42:28.503Z,13.20
2022-12-26T06:43:28.542Z,13.19
2022-12-26T06:44:28.483Z,13.20
2022-12-26T06:45:28.465Z,13.22
2022-12-26T06:46:28.486Z,13.22
2022-12-26T06:47:28.444Z,13.23
2022-12-26T06:48:28.440Z,13.25
2022-12-26T06:49:32.751Z,13.28
2022-12-26T06:50:28.404Z,13.35
2022-12-26T06:51:28.388Z,13.35
2022-12-26T06:52:28.376Z,13.42
2022-12-26T06:53:28.386Z,13.39
2022-12-26T06:54:28.354Z,13.37
2022-12-26T06:55:28.333Z,13.33
2022-12-26T06:56:28.337Z,13.35
2022-12-26T06:57:28.319Z,13.37
2022-12-26T06:58:28.319Z,13.31
2022-12-26T06:59:28.311Z,13.31
2022-12-26T07:00:28.319Z,13.33
2022-12-26T07:01:28.495Z,13.19
2022-12-26T07:02:28.313Z,13.28
2022-12-26T07:03:28.252Z,13.25
2022-12-26T07:04:28.220Z,13.19
2022-12-26T07:05:28.206Z,13.19
2022-12-26T07:06:28.239Z,13.15
2022-12-26T07:07:28.179Z,13.11
2022-12-26T07:08:28.191Z,13.08
2022-12-26T07:09:33.378Z,13.04
2022-12-26T07:10:28.155Z,12.98
2022-12-26T07:11:28.129Z,13.00
2022-12-26T07:12:28.114Z,12.98
2022-12-26T07:13:28.126Z,12.97
2022-12-26T07:14:28.112Z,12.91
2022-12-26T07:15:28.091Z,12.90
2022-12-26T07:16:28.154Z,12.93
2022-12-26T07:17:28.058Z,12.85
2022-12-26T07:18:28.054Z,12.83
2022-12-26T07:19:28.020Z,12.82
2022-12-26T07:20:28.009Z,12.85
2022-12-26T07:21:27.994Z,12.85
2022-12-26T07:22:27.982Z,12.85
2022-12-26T07:23:27.989Z,12.80
2022-12-26T07:24:27.965Z,12.80
2022-12-26T07:25:27.945Z,12.79
2022-12-26T07:26:27.933Z,12.82
2022-12-26T07:27:27.925Z,12.83
2022-12-26T07:28:27.922Z,12.73
2022-12-26T07:29:27.892Z,12.79
2022-12-26T07:30:27.881Z,12.72
2022-12-26T07:31:28.002Z,12.67
2022-12-26T07:32:27.855Z,12.65
2022-12-26T07:33:27.962Z,12.64
2022-12-26T07:34:31.390Z,12.60
2022-12-26T07:35:27.814Z,12.58
2022-12-26T07:36:27.803Z,12.57
2022-12-26T07:37:27.797Z,12.54
2022-12-26T07:38:27.775Z,12.53
2022-12-26T07:39:27.771Z,12.45
2022-12-26T07:40:27.747Z,12.43
2022-12-26T07:41:27.746Z,12.37
2022-12-26T07:42:27.733Z,12.40
2022-12-26T07:43:27.710Z,12.36
2022-12-26T07:44:27.712Z,12.31
2022-12-26T07:45:27.720Z,12.28
2022-12-26T07:46:27.763Z,12.24
2022-12-26T07:47:27.675Z,12.27
2022-12-26T07:48:27.654Z,12.24
2022-12-26T07:49:27.645Z,12.21
2022-12-26T07:50:27.615Z,12.21
2022-12-26T07:51:27.631Z,12.25
2022-12-26T07:52:27.607Z,12.22
2022-12-26T07:53:27.578Z,12.24
2022-12-26T07:54:27.581Z,12.20
2022-12-26T07:55:27.552Z,12.24
2022-12-26T07:56:27.543Z,12.25
2022-12-26T07:57:48.118Z,12.24
2022-12-26T07:58:28.512Z,12.17
2022-12-26T07:59:27.518Z,12.18
2022-12-26T08:00:27.581Z,12.21
2022-12-26T08:01:27.579Z,12.15
2022-12-26T08:02:27.746Z,12.10
2022-12-26T08:03:27.556Z,12.10
2022-12-26T08:04:27.452Z,12.10
2022-12-26T08:05:27.423Z,12.04
2022-12-26T08:06:27.425Z,12.06
2022-12-26T08:07:27.407Z,12.03
2022-12-26T08:08:27.391Z,12.02
2022-12-26T08:09:27.388Z,12.00
2022-12-26T08:10:27.418Z,12.00
2022-12-26T08:11:27.343Z,11.97
2022-12-26T08:12:27.338Z,11.97
2022-12-26T08:13:27.317Z,11.99
2022-12-26T08:14:27.325Z,11.95
2022-12-26T08:15:27.297Z,11.94
2022-12-26T08:16:27.349Z,11.87
2022-12-26T08:17:27.268Z,11.87
2022-12-26T08:18:27.288Z,11.86
2022-12-26T08:19:27.277Z,11.78
2022-12-26T08:20:27.262Z,11.77
2022-12-26T08:21:27.227Z,11.75
2022-12-26T08:22:27.203Z,11.72
2022-12-26T08:23:27.187Z,11.69
2022-12-26T08:24:27.195Z,11.66
2022-12-26T08:25:27.158Z,11.63
2022-12-26T08:26:27.150Z,11.63
2022-12-26T08:27:27.135Z,11.63
2022-12-26T08:28:27.125Z,11.55
2022-12-26T08:29:27.125Z,11.62
2022-12-26T08:30:27.235Z,11.65
2022-12-26T08:31:27.074Z,11.60
2022-12-26T08:32:27.063Z,11.62
2022-12-26T08:33:27.056Z,11.60
2022-12-26T08:34:27.058Z,11.59
2022-12-26T08:35:27.076Z,11.59
2022-12-26T08:36:27.036Z,11.60
2022-12-26T08:37:27.005Z,11.65
2022-12-26T08:38:31.565Z,11.65
2022-12-26T08:39:26.987Z,11.63
2022-12-26T08:40:42.742Z,11.55
2022-12-26T08:41:26.950Z,11.65
2022-12-26T08:42:26.946Z,11.65
2022-12-26T08:44:28.316Z,11.60
2022-12-26T08:45:26.890Z,11.63
2022-12-26T08:46:26.888Z,11.63
2022-12-26T08:47:26.865Z,11.60
2022-12-26T08:48:26.854Z,11.60
2022-12-26T08:49:26.865Z,11.60
2022-12-26T08:50:26.838Z,11.63
2022-12-26T08:51:26.842Z,11.63
2022-12-26T08:52:26.802Z,11.63
2022-12-26T08:53:26.785Z,11.60
2022-12-26T08:54:26.810Z,11.60
2022-12-26T08:55:26.755Z,11.60
2022-12-26T08:56:26.747Z,11.62
2022-12-26T08:57:26.733Z,11.63
2022-12-26T08:58:26.774Z,11.63
2022-12-26T08:59:26.701Z,11.63
2022-12-26T09:00:26.700Z,11.63
2022-12-26T09:01:27.015Z,11.70
2022-12-26T09:02:26.780Z,11.68
2022-12-26T09:03:26.736Z,11.73
2022-12-26T09:04:26.636Z,11.69
2022-12-26T09:05:26.652Z,11.66
2022-12-26T09:06:26.637Z,11.73
2022-12-26T09:07:26.619Z,11.78
2022-12-26T09:08:26.585Z,11.78
2022-12-26T09:09:26.580Z,11.73
2022-12-26T09:10:26.573Z,11.78
2022-12-26T09:11:26.551Z,11.75
2022-12-26T09:12:26.531Z,11.78
2022-12-26T09:13:26.522Z,11.80
2022-12-26T09:14:26.500Z,11.81
2022-12-26T09:15:26.507Z,11.77
2022-12-26T09:16:26.571Z,11.72
2022-12-26T09:17:26.525Z,11.70
2022-12-26T09:18:26.453Z,11.73
2022-12-26T09:19:26.433Z,11.77
2022-12-26T09:20:26.439Z,11.78
2022-12-26T09:21:26.408Z,11.81
2022-12-26T09:22:29.282Z,11.81
2022-12-26T09:23:26.401Z,11.81
2022-12-26T09:24:26.382Z,11.78
2022-12-26T09:25:26.386Z,11.78
2022-12-26T09:26:26.363Z,11.81
2022-12-26T09:27:26.327Z,11.81
2022-12-26T09:28:26.312Z,11.81
2022-12-26T09:29:26.302Z,11.87
2022-12-26T09:30:26.318Z,11.81
2022-12-26T09:31:26.326Z,11.83
2022-12-26T09:32:26.264Z,11.81
2022-12-26T09:33:26.249Z,11.84
2022-12-26T09:34:26.265Z,11.86
2022-12-26T09:35:26.240Z,11.86
2022-12-26T09:36:26.209Z,11.88
2022-12-26T09:37:26.204Z,11.88
2022-12-26T09:38:26.184Z,11.88
2022-12-26T09:39:26.206Z,11.99
2022-12-26T09:40:26.171Z,11.99
2022-12-26T09:41:26.138Z,11.99
2022-12-26T09:42:26.129Z,12.03
2022-12-26T09:43:26.117Z,11.97
2022-12-26T09:44:26.101Z,12.04
2022-12-26T09:45:26.104Z,12.02
2022-12-26T09:46:26.105Z,12.09
2022-12-26T09:47:26.065Z,12.09
2022-12-26T09:48:26.046Z,12.06
2022-12-26T09:49:26.034Z,12.06
2022-12-26T09:50:26.017Z,12.04
2022-12-26T09:51:26.021Z,12.09
2022-12-26T09:52:25.996Z,12.10
2022-12-26T09:53:25.981Z,12.13
2022-12-26T09:54:25.971Z,12.13
2022-12-26T09:55:25.976Z,12.10
2022-12-26T09:57:25.929Z,12.10
2022-12-26T09:58:25.918Z,12.09
2022-12-26T09:59:25.904Z,12.12
2022-12-26T10:00:25.888Z,12.07
2022-12-26T10:01:25.938Z,12.04
2022-12-26T10:02:25.959Z,12.07
2022-12-26T10:03:25.861Z,12.12
2022-12-26T10:04:29.594Z,12.13
2022-12-26T10:05:25.818Z,12.20
2022-12-26T10:06:25.824Z,12.21
2022-12-26T10:07:25.801Z,12.20
2022-12-26T10:08:25.777Z,12.24
2022-12-26T10:09:25.767Z,12.22
2022-12-26T10:10:25.750Z,12.27
2022-12-26T10:11:25.778Z,12.27
2022-12-26T10:12:25.725Z,12.27
2022-12-26T10:13:25.716Z,12.29
2022-12-26T10:14:25.707Z,12.32
2022-12-26T10:15:25.686Z,12.32
2022-12-26T10:16:25.770Z,12.28
2022-12-26T10:17:25.667Z,12.32
2022-12-26T10:18:25.656Z,12.35
2022-12-26T10:19:32.003Z,12.35
2022-12-26T10:20:25.637Z,12.35
2022-12-26T10:21:25.624Z,12.35
2022-12-26T10:22:25.588Z,12.32
2022-12-26T10:23:25.584Z,12.36
2022-12-26T10:24:25.566Z,12.32
2022-12-26T10:25:31.918Z,12.36
2022-12-26T10:26:26.560Z,12.32
2022-12-26T10:27:25.550Z,12.36
2022-12-26T10:28:25.513Z,12.42
2022-12-26T10:29:25.513Z,12.32
2022-12-26T10:30:25.487Z,12.36
2022-12-26T10:31:25.532Z,12.39
2022-12-26T10:32:28.123Z,12.32
2022-12-26T10:33:25.452Z,12.31
2022-12-26T10:34:25.433Z,12.35
2022-12-26T10:35:25.420Z,12.32
2022-12-26T10:36:25.421Z,12.32
2022-12-26T10:37:25.395Z,12.37
2022-12-26T10:38:27.583Z,12.40
2022-12-26T10:39:25.376Z,12.40
2022-12-26T10:40:25.355Z,12.35
2022-12-26T10:41:25.360Z,12.29
2022-12-26T10:42:25.333Z,12.28
2022-12-26T10:43:25.349Z,12.25
2022-12-26T10:44:27.834Z,12.24
2022-12-26T10:45:25.292Z,12.21
2022-12-26T10:46:25.338Z,12.21
2022-12-26T10:47:25.266Z,12.18
2022-12-26T10:48:25.254Z,12.22
2022-12-26T10:49:25.236Z,12.20
2022-12-26T10:50:27.597Z,12.22
2022-12-26T10:51:25.235Z,12.22
2022-12-26T10:52:25.204Z,12.21
2022-12-26T10:53:25.180Z,12.25
2022-12-26T10:54:25.186Z,12.24
2022-12-26T10:55:29.034Z,12.28
2022-12-26T10:56:25.178Z,12.25
2022-12-26T10:57:25.137Z,12.27
2022-12-26T10:58:25.120Z,12.24
2022-12-26T10:59:25.197Z,12.25
2022-12-26T11:00:25.096Z,12.27
2022-12-26T11:01:25.236Z,12.28
2022-12-26T11:02:25.320Z,12.25
2022-12-26T11:03:25.291Z,12.20
2022-12-26T11:05:02.245Z,12.18
2022-12-26T11:05:57.086Z,12.13
2022-12-26T11:06:26.036Z,12.10
2022-12-26T11:07:25.001Z,12.12
2022-12-26T11:08:24.990Z,12.15
2022-12-26T11:09:24.995Z,12.12
2022-12-26T11:10:24.972Z,12.15
2022-12-26T11:11:24.961Z,12.15
2022-12-26T11:12:24.959Z,12.10
2022-12-26T11:13:24.942Z,12.10
2022-12-26T11:14:28.692Z,12.10
2022-12-26T11:15:24.916Z,12.15
2022-12-26T11:16:24.943Z,12.15
2022-12-26T11:17:24.885Z,12.18
2022-12-26T11:18:24.854Z,12.15
2022-12-26T11:19:24.847Z,12.18
2022-12-26T11:20:24.839Z,12.13
2022-12-26T11:21:24.818Z,12.13
2022-12-26T11:22:24.816Z,12.13
2022-12-26T11:23:24.797Z,12.12
2022-12-26T11:24:24.781Z,12.12
2022-12-26T11:25:24.770Z,12.15
2022-12-26T11:26:24.756Z,12.15
2022-12-26T11:27:24.760Z,12.12
2022-12-26T11:28:24.730Z,12.13
2022-12-26T11:29:24.727Z,12.15
2022-12-26T11:30:24.709Z,12.20
2022-12-26T11:31:24.749Z,12.15
2022-12-26T11:32:24.695Z,12.17
2022-12-26T11:33:24.661Z,12.20
2022-12-26T11:34:24.646Z,12.20
2022-12-26T11:35:24.657Z,12.18
2022-12-26T11:36:24.626Z,12.15
2022-12-26T11:37:24.653Z,12.13
2022-12-26T11:38:24.597Z,12.09
2022-12-26T11:39:24.583Z,12.12
2022-12-26T11:40:24.571Z,12.10
2022-12-26T11:41:24.558Z,12.17
2022-12-26T11:42:24.558Z,12.17
2022-12-26T11:43:24.548Z,12.18
2022-12-26T11:44:24.521Z,12.22
2022-12-26T11:45:24.508Z,12.20
2022-12-26T11:46:24.551Z,12.24
2022-12-26T11:47:24.515Z,12.27
2022-12-26T11:48:24.481Z,12.32
2022-12-26T11:49:24.453Z,12.32
2022-12-26T11:50:24.441Z,12.29
2022-12-26T11:51:24.425Z,12.36
2022-12-26T11:52:24.434Z,12.29
2022-12-26T11:53:24.404Z,12.35
2022-12-26T11:54:24.386Z,12.32
2022-12-26T11:55:24.377Z,12.35
2022-12-26T11:56:24.361Z,12.42
2022-12-26T11:57:24.363Z,12.42
2022-12-26T11:58:24.337Z,12.42
2022-12-26T11:59:24.321Z,12.37
2022-12-26T12:00:24.318Z,12.37
2022-12-26T12:01:24.356Z,12.37
2022-12-26T12:02:24.383Z,12.37
2022-12-26T12:03:24.341Z,12.36
2022-12-26T12:04:24.266Z,12.37
2022-12-26T12:05:24.246Z,12.35
2022-12-26T12:06:24.228Z,12.32
2022-12-26T12:07:24.238Z,12.32
2022-12-26T12:08:24.208Z,12.35
2022-12-26T12:09:24.193Z,12.31
2022-12-26T12:10:24.196Z,12.32
2022-12-26T12:11:24.165Z,12.39
2022-12-26T12:12:24.169Z,12.39
2022-12-26T12:13:24.142Z,12.37
2022-12-26T12:14:24.124Z,12.39
2022-12-26T12:15:24.118Z,12.42
2022-12-26T12:16:24.132Z,12.43
2022-12-26T12:17:24.105Z,12.43
2022-12-26T12:18:24.072Z,12.45
2022-12-26T12:19:24.211Z,12.45
2022-12-26T12:20:24.051Z,12.49
2022-12-26T12:21:24.041Z,12.55
2022-12-26T12:22:24.043Z,12.57
2022-12-26T12:23:24.008Z,12.50
2022-12-26T12:24:23.999Z,12.50
2022-12-26T12:25:23.987Z,12.45
2022-12-26T12:26:23.975Z,12.53
2022-12-26T12:27:23.960Z,12.50
2022-12-26T12:28:23.965Z,12.55
2022-12-26T12:29:23.933Z,12.54
2022-12-26T12:30:23.922Z,12.57
2022-12-26T12:31:23.953Z,12.49
2022-12-26T12:32:23.891Z,12.47
2022-12-26T12:33:23.898Z,12.46
2022-12-26T12:34:23.869Z,12.40
2022-12-26T12:35:23.982Z,12.43
2022-12-26T12:36:23.839Z,12.40
2022-12-26T12:37:23.832Z,12.37
2022-12-26T12:38:23.831Z,12.32
2022-12-26T12:39:23.805Z,12.31
2022-12-26T12:40:23.794Z,12.25
2022-12-26T12:41:23.780Z,12.25
2022-12-26T12:42:23.761Z,12.22
2022-12-26T12:43:23.762Z,12.27
2022-12-26T12:44:23.737Z,12.22
2022-12-26T12:45:23.734Z,12.21
2022-12-26T12:46:23.712Z,12.13
2022-12-26T12:47:23.695Z,12.12
2022-12-26T12:48:23.703Z,12.10
2022-12-26T12:49:23.679Z,12.04
2022-12-26T12:50:23.655Z,12.02
2022-12-26T12:51:23.667Z,12.02
2022-12-26T12:52:23.637Z,11.97
2022-12-26T12:53:23.643Z,11.97
2022-12-26T12:54:23.606Z,11.95